Terminal Aerodrome Forecast
Issued by NWS Burlington, VT

Home | Current Version | Previous Version | Text Only | Print | Product List | Glossary On
Versions: 1 2 3 4 5 6 7 8 9 10 11 12 13 14 15 16 17 18 19 20 21 22 23 24 25 26 27
000
FTUS41 KBTV 210800 AAA
TAFBTV
TAF AMD
KBTV 210833Z 2109/2206 VRB04KT P6SM -SHRA OVC060
     FM211800 35006KT 6SM -RA BR OVC030
     FM212100 35006KT 6SM -RA BR OVC010
     FM220000 35006KT 5SM -RA BR OVC008=

USA.gov is the U.S. government's official web portal to all federal, state and local government web resources and services.